Time;durP1;ratioP1;P1;durP2;ratioP2;P2;SDS_P1;SDS_P2;PMS_P1;PMS_P2;Temp;Humidity;BMP_temperature;BMP_pressure;BME280_temperature;BME280_humidity;BME280_pressure;Samples;Min_cycle;Max_cycle;Signal;HPM_P1;HPM_P2
2021/06/21 00:00:33;;;;;;;18.45;6.80;;;;;;;;;;5052971;28;20049;-37
2021/06/21 00:03:02;;;;;;;15.05;6.50;;;;;;;;;;5053395;28;20045;-37
2021/06/21 00:05:29;;;;;;;21.00;7.40;;;;;;;;;;5051566;28;20112;-37
2021/06/21 00:07:55;;;;;;;21.52;7.00;;;;;;;;;;5052743;28;20057;-37
2021/06/21 00:10:22;;;;;;;15.38;6.47;;;;;;;;;;5051222;28;20465;-37
2021/06/21 00:12:49;;;;;;;18.83;6.50;;;;;;;;;;5052768;28;20041;-37
2021/06/21 00:15:18;;;;;;;16.08;6.53;;;;;;;;;;5049888;28;20083;-37
2021/06/21 00:17:45;;;;;;;17.08;6.07;;;;;;;;;;5052997;28;20037;-37
2021/06/21 00:20:12;;;;;;;21.17;6.53;;;;;;;;;;5052906;28;20226;-37
2021/06/21 00:22:39;;;;;;;18.00;5.80;;;;;;;;;;5052150;28;20052;-37
2021/06/21 00:25:07;;;;;;;15.82;5.50;;;;;;;;;;5053573;28;20056;-37
2021/06/21 00:27:34;;;;;;;15.73;5.15;;;;;;;;;;5049238;28;20090;-37
2021/06/21 00:30:03;;;;;;;12.98;4.72;;;;;;;;;;5052283;28;20049;-37
2021/06/21 00:32:41;;;;;;;16.23;4.93;;;;;;;;;;5056063;28;20053;-36
2021/06/21 00:35:08;;;;;;;17.70;4.65;;;;;;;;;;5070014;28;20091;-37
2021/06/21 00:37:36;;;;;;;14.18;4.63;;;;;;;;;;5060755;28;20513;-37
2021/06/21 00:40:04;;;;;;;15.13;4.60;;;;;;;;;;5059839;28;20091;-37
2021/06/21 00:42:31;;;;;;;13.52;4.57;;;;;;;;;;5052115;28;20234;-41
2021/06/21 00:44:57;;;;;;;16.27;5.38;;;;;;;;;;5052063;28;20562;-37
2021/06/21 00:47:24;;;;;;;18.45;5.07;;;;;;;;;;5050853;28;20057;-37
2021/06/21 00:49:51;;;;;;;21.40;6.45;;;;;;;;;;5032833;28;20057;-36
2021/06/21 00:52:21;;;;;;;16.00;6.03;;;;;;;;;;5049546;28;20061;-37
2021/06/21 00:54:59;;;;;;;15.77;5.85;;;;;;;;;;5052414;28;20079;-37
2021/06/21 00:57:27;;;;;;;15.98;6.88;;;;;;;;;;5048464;28;20076;-36
2021/06/21 00:59:55;;;;;;;22.88;7.20;;;;;;;;;;5051219;28;20088;-36
2021/06/21 01:02:21;;;;;;;17.35;7.28;;;;;;;;;;5051470;28;20574;-37
2021/06/21 01:04:48;;;;;;;19.70;7.05;;;;;;;;;;5049960;28;20091;-37
2021/06/21 01:07:15;;;;;;;20.27;7.00;;;;;;;;;;5050431;28;20041;-37
2021/06/21 01:09:42;;;;;;;22.40;6.93;;;;;;;;;;5051744;28;20533;-36
2021/06/21 01:12:13;;;;;;;19.80;8.27;;;;;;;;;;5049899;28;20133;-37
2021/06/21 01:14:44;;;;;;;19.83;7.80;;;;;;;;;;5050970;28;20044;-37
2021/06/21 01:17:21;;;;;;;20.17;7.32;;;;;;;;;;5049666;28;20502;-37
2021/06/21 01:20:07;;;;;;;19.20;7.50;;;;;;;;;;5039236;28;20461;-36
2021/06/21 01:22:34;;;;;;;20.15;7.03;;;;;;;;;;5049971;28;20083;-36
2021/06/21 01:25:13;;;;;;;15.57;6.35;;;;;;;;;;5050928;28;20049;-37
2021/06/21 01:27:39;;;;;;;23.20;6.97;;;;;;;;;;5050504;28;20048;-37
2021/06/21 01:30:08;;;;;;;19.02;6.15;;;;;;;;;;5050209;28;20072;-37
2021/06/21 01:32:52;;;;;;;16.65;6.35;;;;;;;;;;5050024;28;20056;-37
2021/06/21 01:35:22;;;;;;;15.80;5.88;;;;;;;;;;5051773;28;20724;-37
2021/06/21 01:37:52;;;;;;;18.15;6.45;;;;;;;;;;5050987;28;20037;-36
2021/06/21 01:40:21;;;;;;;16.67;6.55;;;;;;;;;;5051073;28;20491;-36
2021/06/21 01:42:50;;;;;;;16.38;6.03;;;;;;;;;;5051196;28;20135;-36
2021/06/21 01:45:18;;;;;;;14.80;6.03;;;;;;;;;;5039038;28;20099;-36
2021/06/21 01:47:46;;;;;;;22.95;6.57;;;;;;;;;;5048695;28;20057;-36
2021/06/21 01:50:16;;;;;;;18.83;6.88;;;;;;;;;;5050845;28;20057;-36
2021/06/21 01:52:43;;;;;;;17.05;6.45;;;;;;;;;;5049735;28;20084;-36
2021/06/21 01:55:12;;;;;;;17.30;6.35;;;;;;;;;;5050055;28;20045;-37
2021/06/21 01:57:40;;;;;;;16.35;6.35;;;;;;;;;;5048683;28;20037;-36
2021/06/21 02:00:08;;;;;;;20.10;7.70;;;;;;;;;;5049266;28;20041;-37
2021/06/21 02:02:36;;;;;;;19.98;7.20;;;;;;;;;;5051904;28;20492;-36
2021/06/21 02:05:04;;;;;;;18.30;7.25;;;;;;;;;;5061103;28;20041;-36
2021/06/21 02:07:31;;;;;;;15.40;6.22;;;;;;;;;;5046573;28;20049;-36
2021/06/21 02:09:58;;;;;;;19.65;6.57;;;;;;;;;;5050242;28;20080;-36
2021/06/21 02:12:26;;;;;;;20.83;6.68;;;;;;;;;;5050501;28;20045;-36
2021/06/21 02:14:55;;;;;;;16.33;7.78;;;;;;;;;;5048244;28;20057;-36
2021/06/21 02:17:23;;;;;;;15.13;6.47;;;;;;;;;;5046520;28;20447;-37
2021/06/21 02:19:50;;;;;;;15.73;6.18;;;;;;;;;;5033510;28;20475;-37
2021/06/21 02:22:22;;;;;;;19.83;6.05;;;;;;;;;;5053131;28;20068;-36
2021/06/21 02:24:49;;;;;;;17.80;7.25;;;;;;;;;;5053178;28;20056;-36
2021/06/21 02:27:16;;;;;;;15.52;6.38;;;;;;;;;;5049938;28;20106;-36
2021/06/21 02:29:43;;;;;;;17.85;6.20;;;;;;;;;;5048471;28;20135;-37
2021/06/21 02:32:10;;;;;;;15.25;6.70;;;;;;;;;;5050713;28;20136;-37
2021/06/21 02:34:37;;;;;;;19.27;6.25;;;;;;;;;;5050215;28;20522;-37
2021/06/21 02:37:04;;;;;;;21.83;6.60;;;;;;;;;;5054719;28;20415;-37
2021/06/21 02:39:30;;;;;;;18.60;6.80;;;;;;;;;;5057761;28;20139;-37
2021/06/21 02:41:57;;;;;;;21.77;6.28;;;;;;;;;;5055614;28;20052;-37
2021/06/21 02:44:24;;;;;;;18.30;7.20;;;;;;;;;;5054647;28;20135;-37
2021/06/21 02:46:51;;;;;;;17.58;5.82;;;;;;;;;;5063377;28;20477;-37
2021/06/21 02:49:18;;;;;;;17.33;5.97;;;;;;;;;;5054873;28;20077;-36
2021/06/21 02:51:49;;;;;;;13.30;5.85;;;;;;;;;;5054886;28;20128;-35
2021/06/21 02:54:21;;;;;;;17.23;6.27;;;;;;;;;;5052920;28;20072;-35
2021/06/21 02:56:54;;;;;;;17.55;5.65;;;;;;;;;;5053809;28;20107;-36
2021/06/21 02:59:21;;;;;;;17.65;6.18;;;;;;;;;;5053278;28;20098;-36
2021/06/21 03:01:54;;;;;;;14.13;5.72;;;;;;;;;;5053640;28;20076;-36
2021/06/21 03:04:21;;;;;;;;;;;;;;;;;;5055146;28;20072;-37
2021/06/21 03:06:49;;;;;;;14.73;5.70;;;;;;;;;;5052344;28;20019;-36
2021/06/21 03:09:17;;;;;;;12.82;5.80;;;;;;;;;;5052668;28;20091;-35
2021/06/21 03:11:44;;;;;;;18.33;5.70;;;;;;;;;;5053599;28;20094;-36
2021/06/21 03:14:12;;;;;;;16.98;6.03;;;;;;;;;;5046239;28;20077;-37
2021/06/21 03:16:40;;;;;;;13.10;5.43;;;;;;;;;;5050423;28;20494;-36
2021/06/21 03:19:07;;;;;;;13.02;5.70;;;;;;;;;;5048723;28;20077;-36
2021/06/21 03:21:34;;;;;;;15.20;5.80;;;;;;;;;;5053331;28;20055;-36
2021/06/21 03:24:00;;;;;;;13.68;5.20;;;;;;;;;;5052219;28;20496;-36
2021/06/21 03:26:29;;;;;;;14.70;6.35;;;;;;;;;;5052430;28;20140;-36
2021/06/21 03:28:56;;;;;;;22.63;6.20;;;;;;;;;;5051478;28;20111;-36
2021/06/21 03:31:24;;;;;;;18.00;4.65;;;;;;;;;;5053192;28;20107;-36
2021/06/21 03:33:51;;;;;;;11.57;4.40;;;;;;;;;;5053764;28;20126;-36
2021/06/21 03:36:18;;;;;;;12.85;4.10;;;;;;;;;;5052450;28;20474;-37
2021/06/21 03:38:46;;;;;;;14.07;4.82;;;;;;;;;;5044933;28;20076;-36
2021/06/21 03:41:13;;;;;;;13.63;5.32;;;;;;;;;;5051814;28;20041;-37
2021/06/21 03:43:40;;;;;;;13.45;4.28;;;;;;;;;;5053990;28;20044;-37
2021/06/21 03:46:09;;;;;;;16.67;4.78;;;;;;;;;;5052474;28;20052;-37
2021/06/21 03:48:37;;;;;;;14.73;4.10;;;;;;;;;;5050895;28;20159;-37
2021/06/21 03:51:04;;;;;;;13.48;4.28;;;;;;;;;;5052447;28;20044;-37
2021/06/21 03:53:31;;;;;;;13.55;3.63;;;;;;;;;;5052390;28;20040;-37
2021/06/21 03:55:58;;;;;;;17.63;4.85;;;;;;;;;;5052757;28;20053;-37
2021/06/21 03:58:25;;;;;;;16.55;4.60;;;;;;;;;;5050758;28;20052;-37
2021/06/21 04:00:52;;;;;;;12.18;3.95;;;;;;;;;;5051839;28;20458;-38
2021/06/21 04:03:19;;;;;;;18.42;4.57;;;;;;;;;;5053461;28;20057;-38
2021/06/21 04:05:46;;;;;;;14.00;4.25;;;;;;;;;;5052757;28;20466;-38
2021/06/21 04:08:13;;;;;;;15.45;3.90;;;;;;;;;;5054505;28;20049;-38
2021/06/21 04:10:41;;;;;;;11.88;3.75;;;;;;;;;;5053467;28;20072;-38
2021/06/21 04:13:08;;;;;;;13.95;3.53;;;;;;;;;;5054807;28;20048;-37
2021/06/21 04:15:35;;;;;;;13.75;3.55;;;;;;;;;;5052486;28;20114;-37
2021/06/21 04:18:06;;;;;;;11.60;3.28;;;;;;;;;;5052302;28;20189;-37
2021/06/21 04:20:33;;;;;;;13.10;3.95;;;;;;;;;;5052726;28;20126;-37
2021/06/21 04:23:00;;;;;;;13.45;3.47;;;;;;;;;;5053365;28;20060;-37
2021/06/21 04:25:27;;;;;;;12.65;3.67;;;;;;;;;;5052803;28;20053;-37
2021/06/21 04:27:54;;;;;;;15.38;5.65;;;;;;;;;;5052472;28;20057;-38
2021/06/21 04:30:22;;;;;;;11.38;3.60;;;;;;;;;;5051390;28;20069;-37
2021/06/21 04:32:50;;;;;;;9.82;3.25;;;;;;;;;;5052509;28;20110;-38
2021/06/21 04:35:18;;;;;;;15.57;3.75;;;;;;;;;;5048205;28;20141;-37
2021/06/21 04:37:46;;;;;;;13.23;3.00;;;;;;;;;;5068531;28;20128;-37
2021/06/21 04:40:14;;;;;;;13.13;3.05;;;;;;;;;;5052546;28;20041;-37
2021/06/21 04:42:41;;;;;;;10.63;3.17;;;;;;;;;;5052646;28;20514;-38
2021/06/21 04:45:08;;;;;;;14.10;3.80;;;;;;;;;;5037005;28;20072;-37
2021/06/21 04:47:35;;;;;;;12.93;3.55;;;;;;;;;;5051013;28;20041;-37
2021/06/21 04:50:05;;;;;;;12.15;4.18;;;;;;;;;;5051160;28;20052;-37
2021/06/21 04:52:32;;;;;;;13.85;2.92;;;;;;;;;;5052120;28;20079;-36
2021/06/21 04:55:03;;;;;;;13.40;3.13;;;;;;;;;;5051891;28;20518;-37
2021/06/21 04:57:30;;;;;;;9.63;3.33;;;;;;;;;;5051628;28;20103;-37
2021/06/21 04:59:57;;;;;;;10.93;3.17;;;;;;;;;;5050328;28;20108;-37
2021/06/21 05:02:24;;;;;;;17.85;3.20;;;;;;;;;;5051409;28;20069;-38
2021/06/21 05:04:51;;;;;;;14.48;3.78;;;;;;;;;;5052555;28;20103;-37
2021/06/21 05:07:18;;;;;;;11.90;3.13;;;;;;;;;;5052666;28;20102;-37
2021/06/21 05:09:47;;;;;;;12.80;3.53;;;;;;;;;;5071517;28;20049;-38
2021/06/21 05:12:14;;;;;;;10.75;3.60;;;;;;;;;;5052766;28;20057;-37
2021/06/21 05:14:41;;;;;;;12.90;3.65;;;;;;;;;;5050896;28;20045;-37
2021/06/21 05:17:08;;;;;;;13.80;2.90;;;;;;;;;;5051194;28;20111;-37
2021/06/21 05:19:35;;;;;;;16.05;4.43;;;;;;;;;;5052024;28;20052;-36
2021/06/21 05:22:02;;;;;;;14.13;2.90;;;;;;;;;;5045005;28;20645;-36
2021/06/21 05:24:29;;;;;;;13.25;3.10;;;;;;;;;;5038858;28;20065;-36
2021/06/21 05:26:56;;;;;;;11.40;4.15;;;;;;;;;;5049764;28;20060;-36
2021/06/21 05:29:23;;;;;;;8.73;3.00;;;;;;;;;;5047486;28;20057;-37
2021/06/21 05:31:54;;;;;;;10.32;3.00;;;;;;;;;;5051817;28;20080;-38
2021/06/21 05:34:21;;;;;;;10.93;3.08;;;;;;;;;;5051049;28;20145;-37
2021/06/21 05:36:47;;;;;;;13.77;3.08;;;;;;;;;;5048424;28;20053;-37
2021/06/21 05:39:14;;;;;;;8.32;3.05;;;;;;;;;;5052971;28;20489;-37
2021/06/21 05:41:41;;;;;;;11.23;2.55;;;;;;;;;;5050663;28;20486;-37
2021/06/21 05:44:07;;;;;;;12.10;2.88;;;;;;;;;;5051842;28;20076;-37
2021/06/21 05:46:34;;;;;;;11.25;3.47;;;;;;;;;;5051624;28;20073;-38
2021/06/21 05:49:02;;;;;;;13.82;3.30;;;;;;;;;;5050276;28;20457;-37
2021/06/21 05:51:29;;;;;;;22.08;3.97;;;;;;;;;;5051706;28;20072;-37
2021/06/21 05:53:56;;;;;;;11.35;2.90;;;;;;;;;;5051803;28;20053;-36
2021/06/21 05:56:23;;;;;;;10.18;2.75;;;;;;;;;;5053037;28;20049;-37
2021/06/21 05:58:49;;;;;;;10.70;2.75;;;;;;;;;;5057918;28;20115;-37
2021/06/21 06:01:16;;;;;;;10.55;2.95;;;;;;;;;;5066778;28;20391;-37
2021/06/21 06:03:47;;;;;;;8.48;2.53;;;;;;;;;;5054320;28;20144;-37
2021/06/21 06:06:13;;;;;;;12.52;3.30;;;;;;;;;;5053525;28;20087;-36
2021/06/21 06:08:41;;;;;;;11.80;2.45;;;;;;;;;;5059754;28;20107;-37
2021/06/21 06:11:08;;;;;;;10.93;2.55;;;;;;;;;;5053135;28;20076;-37
2021/06/21 06:13:36;;;;;;;10.55;2.65;;;;;;;;;;5054696;28;20053;-36
2021/06/21 06:16:03;;;;;;;9.73;2.53;;;;;;;;;;5056361;28;20037;-36
2021/06/21 06:18:30;;;;;;;9.68;2.50;;;;;;;;;;5053594;28;20127;-37
2021/06/21 06:20:57;;;;;;;17.33;2.88;;;;;;;;;;5045427;28;20069;-37
2021/06/21 06:23:36;;;;;;;7.45;2.05;;;;;;;;;;5044177;28;20049;-37
2021/06/21 06:26:03;;;;;;;11.05;2.22;;;;;;;;;;5046535;28;20141;-36
2021/06/21 06:28:30;;;;;;;12.70;3.80;;;;;;;;;;5045390;28;20083;-36
2021/06/21 06:30:57;;;;;;;10.25;3.55;;;;;;;;;;5043135;28;20045;-34
2021/06/21 06:33:23;;;;;;;10.60;2.30;;;;;;;;;;5048526;28;20114;-35
2021/06/21 06:35:51;;;;;;;9.80;3.17;;;;;;;;;;5046904;28;20049;-39
2021/06/21 06:38:18;;;;;;;14.35;2.83;;;;;;;;;;5047876;28;20064;-35
2021/06/21 06:40:45;;;;;;;8.48;2.80;;;;;;;;;;5048850;28;20045;-35
2021/06/21 06:43:11;;;;;;;14.25;2.80;;;;;;;;;;5051333;28;20131;-35
2021/06/21 06:45:38;;;;;;;10.55;2.75;;;;;;;;;;5046729;28;20072;-35
2021/06/21 06:48:05;;;;;;;10.38;2.40;;;;;;;;;;5047791;28;20614;-35
2021/06/21 06:50:32;;;;;;;15.15;2.47;;;;;;;;;;5046461;28;20541;-36
2021/06/21 06:53:01;;;;;;;11.75;2.42;;;;;;;;;;5046109;28;20964;-36
2021/06/21 06:58:13;;;;;;;7.97;2.70;;;;;;;;;;5044804;28;20554;-36
2021/06/21 07:00:40;;;;;;;10.48;2.50;;;;;;;;;;5048169;28;20052;-37
2021/06/21 07:03:08;;;;;;;10.75;2.00;;;;;;;;;;5049885;28;20077;-37
2021/06/21 07:05:35;;;;;;;13.70;2.60;;;;;;;;;;5051855;28;20136;-37
2021/06/21 07:08:02;;;;;;;8.55;2.28;;;;;;;;;;5045722;28;20099;-38
2021/06/21 07:10:29;;;;;;;6.05;2.22;;;;;;;;;;5047396;28;20052;-37
2021/06/21 07:12:56;;;;;;;11.18;2.92;;;;;;;;;;5050984;28;20069;-37
2021/06/21 07:15:23;;;;;;;8.18;1.95;;;;;;;;;;5049743;28;20325;-37
2021/06/21 07:17:51;;;;;;;8.75;2.08;;;;;;;;;;5050227;28;20052;-37
2021/06/21 07:20:19;;;;;;;12.30;3.75;;;;;;;;;;5037467;28;20072;-38
2021/06/21 07:22:46;;;;;;;8.95;2.20;;;;;;;;;;5052015;28;20106;-36
2021/06/21 07:25:13;;;;;;;7.95;2.10;;;;;;;;;;5049964;28;20435;-37
2021/06/21 07:27:40;;;;;;;8.70;2.05;;;;;;;;;;5053614;28;20107;-37
2021/06/21 07:30:07;;;;;;;10.70;2.38;;;;;;;;;;5055004;28;20076;-36
2021/06/21 07:32:34;;;;;;;10.65;2.67;;;;;;;;;;5066468;28;20454;-37
2021/06/21 07:35:27;;;;;;;8.38;1.95;;;;;;;;;;5051894;28;20057;-36
2021/06/21 07:37:54;;;;;;;;;;;;;;;;;;5029663;28;20059;-35
2021/06/21 07:40:21;;;;;;;10.30;1.98;;;;;;;;;;5030087;28;20515;-36
2021/06/21 07:42:48;;;;;;;6.55;1.70;;;;;;;;;;5032066;28;20095;-36
2021/06/21 07:45:15;;;;;;;6.63;1.77;;;;;;;;;;5033208;28;20525;-36
2021/06/21 07:47:42;;;;;;;7.32;1.95;;;;;;;;;;5020829;28;20046;-36
2021/06/21 07:50:09;;;;;;;9.18;2.10;;;;;;;;;;5015885;28;20482;-35
2021/06/21 07:52:36;;;;;;;14.00;7.53;;;;;;;;;;5001237;28;20495;-35
2021/06/21 07:55:03;;;;;;;9.02;2.30;;;;;;;;;;5020719;28;20041;-36
2021/06/21 07:57:30;;;;;;;7.35;2.00;;;;;;;;;;4995064;28;20046;-36
2021/06/21 07:59:57;;;;;;;5.72;1.77;;;;;;;;;;5013622;28;20096;-35
2021/06/21 08:02:23;;;;;;;10.82;2.00;;;;;;;;;;5016679;28;20046;-36
2021/06/21 08:04:50;;;;;;;10.02;2.00;;;;;;;;;;5014387;28;20073;-36
2021/06/21 08:07:17;;;;;;;9.90;2.28;;;;;;;;;;5012231;28;20085;-36
2021/06/21 08:09:44;;;;;;;8.85;1.80;;;;;;;;;;5013271;28;20149;-35
2021/06/21 08:12:11;;;;;;;7.32;1.90;;;;;;;;;;4994526;28;20046;-35
2021/06/21 08:14:41;;;;;;;10.40;2.25;;;;;;;;;;4982426;28;20118;-35
2021/06/21 08:17:08;;;;;;;6.28;1.95;;;;;;;;;;5005788;28;20133;-35
2021/06/21 08:19:35;;;;;;;7.00;1.98;;;;;;;;;;5012549;28;20064;-36
2021/06/21 08:22:01;;;;;;;8.73;2.00;;;;;;;;;;5013585;28;20046;-35
2021/06/21 08:24:28;;;;;;;6.82;2.08;;;;;;;;;;5012727;28;20073;-36
2021/06/21 08:26:59;;;;;;;6.88;2.03;;;;;;;;;;5012396;28;20058;-35
2021/06/21 08:29:26;;;;;;;9.30;1.70;;;;;;;;;;5012508;28;20057;-35
2021/06/21 08:31:53;;;;;;;7.88;1.80;;;;;;;;;;5013530;28;20454;-35
2021/06/21 08:34:20;;;;;;;10.48;2.38;;;;;;;;;;5013344;28;20144;-36
2021/06/21 08:36:47;;;;;;;7.72;2.08;;;;;;;;;;5012362;28;20050;-36
2021/06/21 08:39:13;;;;;;;6.03;1.75;;;;;;;;;;5014297;28;20069;-36
2021/06/21 08:41:40;;;;;;;11.23;2.00;;;;;;;;;;5014174;28;20078;-36
2021/06/21 08:44:07;;;;;;;6.63;1.73;;;;;;;;;;5012334;28;20594;-35
2021/06/21 08:46:34;;;;;;;8.23;2.38;;;;;;;;;;5013170;28;20146;-35
2021/06/21 08:49:02;;;;;;;8.77;1.95;;;;;;;;;;5013277;28;20543;-36
2021/06/21 08:51:30;;;;;;;7.22;1.98;;;;;;;;;;4996659;28;20131;-36
2021/06/21 08:53:56;;;;;;;6.53;1.75;;;;;;;;;;5005498;28;20074;-36
2021/06/21 08:56:23;;;;;;;11.18;2.08;;;;;;;;;;5022126;28;20080;-36
2021/06/21 08:58:50;;;;;;;8.73;2.42;;;;;;;;;;5016366;28;20698;-36
2021/06/21 09:01:17;;;;;;;9.77;1.98;;;;;;;;;;5013165;28;20072;-36
2021/06/21 09:03:45;;;;;;;7.60;1.77;;;;;;;;;;5012702;28;20042;-37
2021/06/21 09:06:19;;;;;;;9.18;1.85;;;;;;;;;;5012961;28;20057;-36
2021/06/21 09:08:54;;;;;;;9.70;2.20;;;;;;;;;;5013117;28;20128;-36
2021/06/21 09:11:41;;;;;;;6.72;2.03;;;;;;;;;;5012455;28;20061;-36
2021/06/21 09:14:26;;;;;;;8.40;2.10;;;;;;;;;;5012813;28;20415;-37
2021/06/21 09:16:54;;;;;;;7.75;1.80;;;;;;;;;;5015790;28;20073;-36
2021/06/21 09:19:21;;;;;;;6.88;1.92;;;;;;;;;;5010892;28;20046;-36
2021/06/21 09:21:48;;;;;;;5.78;1.45;;;;;;;;;;5011868;28;20089;-36
2021/06/21 09:24:25;;;;;;;8.55;2.00;;;;;;;;;;5012637;28;20054;-36
2021/06/21 09:26:54;;;;;;;7.88;1.98;;;;;;;;;;5011781;28;20124;-35
2021/06/21 09:29:34;;;;;;;14.85;2.70;;;;;;;;;;5011100;28;20462;-36
2021/06/21 09:32:38;;;;;;;8.85;1.77;;;;;;;;;;5011846;28;20065;-36
2021/06/21 09:35:05;;;;;;;5.97;1.75;;;;;;;;;;5014261;28;20050;-35
2021/06/21 09:37:41;;;;;;;7.95;3.05;;;;;;;;;;5011386;28;20096;-36
2021/06/21 09:40:08;;;;;;;9.05;2.13;;;;;;;;;;4992848;28;20049;-36
2021/06/21 09:42:36;;;;;;;10.77;1.90;;;;;;;;;;5011064;28;20048;-35
2021/06/21 09:45:03;;;;;;;6.88;2.03;;;;;;;;;;5010227;28;20461;-36
2021/06/21 09:47:39;;;;;;;8.77;1.98;;;;;;;;;;5013849;28;20057;-35
2021/06/21 09:50:06;;;;;;;9.27;1.73;;;;;;;;;;5011558;28;20081;-35
2021/06/21 09:52:33;;;;;;;6.85;1.77;;;;;;;;;;5018319;28;20096;-36
2021/06/21 09:55:09;;;;;;;8.20;1.80;;;;;;;;;;5011794;28;20053;-36
2021/06/21 09:57:36;;;;;;;12.25;1.98;;;;;;;;;;5014203;28;20046;-35
2021/06/21 10:00:08;;;;;;;10.73;1.60;;;;;;;;;;5011994;28;20046;-36
2021/06/21 10:02:35;;;;;;;11.90;2.15;;;;;;;;;;5020695;28;20046;-37
2021/06/21 10:05:03;;;;;;;11.30;2.67;;;;;;;;;;5010281;28;20049;-36
2021/06/21 10:07:36;;;;;;;5.60;1.48;;;;;;;;;;5011873;28;20123;-36
2021/06/21 10:10:05;;;;;;;9.02;1.70;;;;;;;;;;5011081;28;20079;-36
2021/06/21 10:12:32;;;;;;;11.10;2.10;;;;;;;;;;5008734;28;20050;-36
2021/06/21 10:14:59;;;;;;;8.90;2.20;;;;;;;;;;5015348;28;20427;-36
2021/06/21 10:17:26;;;;;;;5.82;1.90;;;;;;;;;;5020454;28;20419;-36
2021/06/21 10:19:53;;;;;;;5.10;1.70;;;;;;;;;;5026527;28;20077;-36
2021/06/21 10:22:21;;;;;;;4.10;1.63;;;;;;;;;;5012480;28;20054;-35
2021/06/21 10:24:50;;;;;;;9.30;2.40;;;;;;;;;;5011703;28;20046;-35
2021/06/21 10:27:18;;;;;;;10.23;1.80;;;;;;;;;;5014424;28;20081;-35
2021/06/21 10:29:45;;;;;;;5.80;1.83;;;;;;;;;;5007851;28;20046;-36
2021/06/21 10:32:12;;;;;;;6.45;1.92;;;;;;;;;;5008383;28;20042;-36
2021/06/21 10:34:41;;;;;;;7.53;1.80;;;;;;;;;;5001583;28;20485;-36
2021/06/21 10:37:15;;;;;;;7.63;1.73;;;;;;;;;;5009986;28;20158;-35
2021/06/21 10:39:46;;;;;;;8.80;1.77;;;;;;;;;;4986623;28;20046;-37
2021/06/21 10:42:17;;;;;;;6.90;1.92;;;;;;;;;;5010970;28;20455;-36
2021/06/21 10:44:58;;;;;;;6.28;1.50;;;;;;;;;;5011279;28;20085;-36
2021/06/21 10:47:25;;;;;;;5.00;1.73;;;;;;;;;;5010910;28;20450;-36
2021/06/21 10:50:03;;;;;;;4.72;1.50;;;;;;;;;;5003764;28;20149;-37
2021/06/21 10:52:41;;;;;;;6.15;1.88;;;;;;;;;;5009163;28;20054;-36
2021/06/21 10:55:27;;;;;;;7.55;1.60;;;;;;;;;;5009998;28;20140;-36
2021/06/21 10:57:59;;;;;;;7.07;1.98;;;;;;;;;;5025065;28;20042;-36
2021/06/21 11:00:42;;;;;;;8.02;2.03;;;;;;;;;;5010471;28;20061;-37
2021/06/21 11:03:42;;;;;;;7.45;1.83;;;;;;;;;;5012817;28;20622;-37
2021/06/21 11:06:22;;;;;;;11.18;1.90;;;;;;;;;;5013271;28;20076;-39
2021/06/21 11:08:55;;;;;;;5.72;1.70;;;;;;;;;;5009556;28;20519;-37
2021/06/21 11:11:34;;;;;;;7.18;1.58;;;;;;;;;;5009839;28;20046;-37
2021/06/21 11:14:11;;;;;;;6.43;1.50;;;;;;;;;;5015367;28;20046;-40
2021/06/21 11:16:40;;;;;;;8.40;2.50;;;;;;;;;;5022534;28;20461;-38
2021/06/21 11:19:10;;;;;;;5.90;1.80;;;;;;;;;;5016648;28;20046;-38
2021/06/21 11:21:47;;;;;;;6.50;1.70;;;;;;;;;;5018644;28;20041;-39
2021/06/21 11:24:33;;;;;;;8.02;1.70;;;;;;;;;;5014501;28;20128;-37
2021/06/21 11:27:05;;;;;;;12.57;1.88;;;;;;;;;;5009643;28;20106;-38
2021/06/21 11:29:36;;;;;;;7.80;2.05;;;;;;;;;;5014578;28;20693;-38
2021/06/21 11:32:03;;;;;;;7.43;1.65;;;;;;;;;;5017933;28;20103;-39
2021/06/21 11:34:42;;;;;;;7.00;1.60;;;;;;;;;;5019089;28;20407;-38
2021/06/21 11:37:28;;;;;;;8.07;2.05;;;;;;;;;;5014101;28;20050;-37
2021/06/21 11:40:16;;;;;;;5.30;1.45;;;;;;;;;;5017634;28;20499;-39
2021/06/21 11:43:04;;;;;;;6.45;1.60;;;;;;;;;;5008345;28;20050;-37
2021/06/21 11:45:49;;;;;;;8.23;1.70;;;;;;;;;;5000739;28;20081;-39
2021/06/21 11:48:23;;;;;;;9.65;2.00;;;;;;;;;;5014975;28;20132;-38
2021/06/21 11:50:50;;;;;;;8.90;1.67;;;;;;;;;;5014519;28;20060;-38
2021/06/21 11:53:17;;;;;;;10.20;2.00;;;;;;;;;;5023526;28;20064;-38
2021/06/21 11:55:44;;;;;;;7.57;2.08;;;;;;;;;;5015807;28;20562;-38
2021/06/21 11:58:11;;;;;;;10.50;2.35;;;;;;;;;;5010217;28;20046;-39
2021/06/21 12:00:38;;;;;;;9.02;1.98;;;;;;;;;;5009879;28;20084;-38
2021/06/21 12:03:07;;;;;;;7.10;2.03;;;;;;;;;;5012288;28;20100;-38
2021/06/21 12:05:34;;;;;;;8.35;1.75;;;;;;;;;;5027445;28;20144;-38
2021/06/21 12:08:11;;;;;;;9.95;1.90;;;;;;;;;;5012627;28;20100;-39
2021/06/21 12:10:38;;;;;;;7.68;2.20;;;;;;;;;;5010772;28;20053;-39
2021/06/21 12:13:05;;;;;;;7.03;1.90;;;;;;;;;;5012806;28;20621;-37
2021/06/21 12:15:37;;;;;;;7.22;2.30;;;;;;;;;;5011864;28;20561;-38
2021/06/21 12:18:04;;;;;;;7.50;1.90;;;;;;;;;;5010012;28;20077;-38
2021/06/21 12:20:34;;;;;;;7.15;1.80;;;;;;;;;;5011900;28;20099;-39
2021/06/21 12:23:04;;;;;;;6.60;2.25;;;;;;;;;;5009885;28;20065;-38
2021/06/21 12:25:39;;;;;;;10.02;2.28;;;;;;;;;;5013002;28;20072;-36
2021/06/21 12:28:11;;;;;;;6.75;1.65;;;;;;;;;;5017892;28;20054;-37
2021/06/21 12:30:44;;;;;;;8.32;2.28;;;;;;;;;;5013638;28;20077;-37
2021/06/21 12:33:20;;;;;;;9.60;1.60;;;;;;;;;;5018812;28;20103;-37
2021/06/21 12:36:11;;;;;;;10.27;2.17;;;;;;;;;;5014391;28;20053;-37
2021/06/21 12:38:38;;;;;;;7.07;2.25;;;;;;;;;;5022686;28;20041;-38
2021/06/21 12:41:12;;;;;;;5.95;1.30;;;;;;;;;;5012628;28;20096;-36
2021/06/21 12:43:39;;;;;;;9.32;2.00;;;;;;;;;;5014184;28;20063;-37
2021/06/21 12:46:15;;;;;;;10.18;2.42;;;;;;;;;;5018605;28;20079;-36
2021/06/21 12:48:43;;;;;;;5.93;1.98;;;;;;;;;;5009937;28;20466;-36
2021/06/21 12:51:11;;;;;;;9.55;2.13;;;;;;;;;;5013253;28;20050;-37
2021/06/21 12:53:42;;;;;;;11.27;2.25;;;;;;;;;;5012768;28;20113;-36
2021/06/21 12:56:17;;;;;;;7.43;1.90;;;;;;;;;;5019583;28;20045;-37
2021/06/21 12:58:43;;;;;;;9.30;1.60;;;;;;;;;;5012473;28;20463;-37
2021/06/21 13:01:19;;;;;;;7.55;1.63;;;;;;;;;;5013882;28;20045;-36
2021/06/21 13:03:46;;;;;;;12.10;2.45;;;;;;;;;;4997650;28;20058;-37
2021/06/21 13:06:13;;;;;;;8.35;1.80;;;;;;;;;;5001979;28;20193;-36
2021/06/21 13:08:40;;;;;;;9.93;1.80;;;;;;;;;;4993447;28;20058;-37
2021/06/21 13:11:10;;;;;;;4.85;1.55;;;;;;;;;;5004300;28;20057;-37
2021/06/21 13:13:41;;;;;;;6.65;1.67;;;;;;;;;;5017038;28;20057;-36
2021/06/21 13:16:09;;;;;;;7.82;1.95;;;;;;;;;;5012086;28;20135;-36
2021/06/21 13:19:05;;;;;;;4.80;1.48;;;;;;;;;;5010662;28;20146;-37
2021/06/21 13:21:38;;;;;;;6.05;1.73;;;;;;;;;;5008707;28;20045;-37
2021/06/21 13:24:05;;;;;;;8.50;1.77;;;;;;;;;;5011222;28;20103;-37
2021/06/21 13:26:33;;;;;;;9.95;1.75;;;;;;;;;;5010833;28;20073;-37
2021/06/21 13:29:15;;;;;;;7.25;2.08;;;;;;;;;;5011435;28;20054;-37
2021/06/21 13:31:42;;;;;;;8.60;2.20;;;;;;;;;;5011917;28;20058;-37
2021/06/21 13:34:09;;;;;;;6.90;2.10;;;;;;;;;;4994299;28;20514;-36
2021/06/21 13:36:55;;;;;;;8.40;1.90;;;;;;;;;;5011421;28;20049;-36
2021/06/21 13:39:22;;;;;;;8.10;1.80;;;;;;;;;;5015596;28;20070;-36
2021/06/21 13:41:56;;;;;;;9.38;1.95;;;;;;;;;;5003182;28;20073;-36
2021/06/21 13:44:23;;;;;;;7.95;2.17;;;;;;;;;;5013266;28;20050;-36
2021/06/21 13:46:49;;;;;;;16.05;2.95;;;;;;;;;;5011068;28;20096;-36
2021/06/21 13:49:16;;;;;;;10.05;2.30;;;;;;;;;;5020064;28;20168;-37
2021/06/21 13:51:53;;;;;;;10.45;2.10;;;;;;;;;;5019730;28;20423;-37
2021/06/21 13:54:23;;;;;;;8.88;1.90;;;;;;;;;;5021203;28;20074;-37
2021/06/21 13:56:50;;;;;;;9.23;1.88;;;;;;;;;;5001424;28;20400;-38
2021/06/21 13:59:18;;;;;;;6.60;2.10;;;;;;;;;;5019692;28;20076;-38
2021/06/21 14:01:52;;;;;;;10.68;2.13;;;;;;;;;;5022672;28;20066;-38
2021/06/21 14:04:19;;;;;;;6.68;1.98;;;;;;;;;;5022340;28;20054;-36
2021/06/21 14:06:46;;;;;;;9.77;2.50;;;;;;;;;;5017916;28;20423;-37
2021/06/21 14:09:17;;;;;;;13.05;3.45;;;;;;;;;;5024719;28;20130;-38
2021/06/21 14:11:44;;;;;;;8.18;2.47;;;;;;;;;;5012144;28;20050;-37
2021/06/21 14:14:19;;;;;;;11.18;2.25;;;;;;;;;;5002069;28;20100;-38
2021/06/21 14:16:46;;;;;;;8.90;2.45;;;;;;;;;;5022606;28;20053;-37
2021/06/21 14:19:13;;;;;;;9.07;1.80;;;;;;;;;;5024514;28;20046;-39
2021/06/21 14:21:43;;;;;;;10.48;2.05;;;;;;;;;;5015406;28;20042;-39
2021/06/21 14:24:16;;;;;;;12.90;2.10;;;;;;;;;;5017721;28;20054;-39
2021/06/21 14:26:44;;;;;;;9.60;2.15;;;;;;;;;;5005930;28;20046;-39
2021/06/21 14:29:11;;;;;;;15.45;2.58;;;;;;;;;;5017768;28;20503;-39
2021/06/21 14:31:38;;;;;;;9.80;2.28;;;;;;;;;;5033805;28;20045;-39
2021/06/21 14:34:05;;;;;;;11.25;2.05;;;;;;;;;;5002082;28;20050;-38
2021/06/21 14:36:32;;;;;;;11.57;2.35;;;;;;;;;;5017413;28;20045;-39
2021/06/21 14:38:59;;;;;;;12.75;2.80;;;;;;;;;;4992748;28;20043;-39
2021/06/21 14:41:26;;;;;;;9.75;2.00;;;;;;;;;;4999690;28;20506;-41
2021/06/21 14:43:53;;;;;;;8.13;2.15;;;;;;;;;;5017685;28;20058;-39
2021/06/21 14:46:19;;;;;;;7.90;2.10;;;;;;;;;;5026209;28;20084;-38
2021/06/21 14:48:51;;;;;;;15.75;2.78;;;;;;;;;;5015648;28;20135;-38
2021/06/21 14:51:18;;;;;;;9.48;2.05;;;;;;;;;;5012883;28;20128;-38